createdAt,value
2019-01-14T00:00:44.273Z,99283.66
2019-01-14T00:05:47.791Z,99280.70
2019-01-14T00:10:51.277Z,99298.09
2019-01-14T00:15:54.836Z,99313.66
2019-01-14T00:20:58.448Z,99339.17
2019-01-14T00:26:01.927Z,99337.39
2019-01-14T00:31:05.391Z,99339.98
2019-01-14T00:36:08.894Z,99350.97
2019-01-14T00:41:12.459Z,99363.53
2019-01-14T00:46:15.903Z,99376.28
2019-01-14T00:51:19.364Z,99392.06
2019-01-14T00:56:22.776Z,99420.75
2019-01-14T01:01:26.285Z,99445.44
2019-01-14T01:06:29.794Z,99437.48
2019-01-14T01:11:33.313Z,99448.11
2019-01-14T01:16:36.784Z,99459.38
2019-01-14T01:21:40.213Z,99476.72
2019-01-14T01:26:43.656Z,99473.27
2019-01-14T01:31:47.154Z,99484.95
2019-01-14T01:36:50.607Z,99493.16
2019-01-14T01:41:55.850Z,99505.81
2019-01-14T01:46:59.293Z,99502.67
2019-01-14T01:52:02.742Z,99520.85
2019-01-14T01:57:06.217Z,99528.70
2019-01-14T02:02:09.676Z,99545.14
2019-01-14T02:07:13.134Z,99558.55
2019-01-14T02:12:17.572Z,99568.05
2019-01-14T02:17:21.182Z,99587.56
2019-01-14T02:22:24.640Z,99581.55
2019-01-14T02:27:28.062Z,99591.05
2019-01-14T02:32:31.527Z,99602.77
2019-01-14T02:37:34.954Z,99626.93
2019-01-14T02:42:38.415Z,99618.80
2019-01-14T02:47:41.860Z,99629.14
2019-01-14T02:52:45.304Z,99638.20
2019-01-14T02:57:48.749Z,99651.66
2019-01-14T03:02:52.210Z,99665.89
2019-01-14T03:07:55.714Z,99674.22
2019-01-14T03:12:59.127Z,99678.58
2019-01-14T03:18:02.578Z,99682.83
2019-01-14T03:23:06.017Z,99702.67
2019-01-14T03:28:09.454Z,99721.20
2019-01-14T03:33:12.889Z,99720.01
2019-01-14T03:38:16.385Z,99722.64
2019-01-14T03:43:19.872Z,99731.77
2019-01-14T03:48:23.326Z,99745.95
2019-01-14T03:53:26.782Z,99744.28
2019-01-14T03:58:30.309Z,99751.16
2019-01-14T04:03:33.824Z,99747.36
2019-01-14T04:08:37.372Z,99761.96
2019-01-14T04:13:41.058Z,99774.44
2019-01-14T04:18:44.512Z,99783.55
2019-01-14T04:23:47.949Z,99790.00
2019-01-14T04:28:51.410Z,99784.82
2019-01-14T04:33:54.900Z,99784.85
2019-01-14T04:38:58.932Z,99784.41
2019-01-14T04:44:02.425Z,99794.30
2019-01-14T04:49:05.886Z,99804.67
2019-01-14T04:54:09.345Z,99807.66
2019-01-14T04:59:12.813Z,99819.28
2019-01-14T05:04:16.293Z,99819.73
2019-01-14T05:09:19.746Z,99827.06
2019-01-14T05:14:23.184Z,99825.72
2019-01-14T05:19:26.662Z,99828.73
2019-01-14T05:24:30.108Z,99830.47
2019-01-14T05:29:33.613Z,99842.56
2019-01-14T05:34:37.010Z,99849.03
2019-01-14T05:39:40.463Z,99859.79
2019-01-14T05:44:43.932Z,99864.52
2019-01-14T05:49:47.559Z,99867.52
2019-01-14T05:54:51.000Z,99874.41
2019-01-14T05:59:54.463Z,99884.31
2019-01-14T06:04:57.933Z,99886.48
2019-01-14T06:10:01.355Z,99898.55
2019-01-14T06:15:08.324Z,99905.44
2019-01-14T06:20:16.901Z,99914.03
2019-01-14T06:25:20.483Z,99917.05
2019-01-14T06:30:26.822Z,99933.02
2019-01-14T06:35:30.374Z,99939.90
2019-01-14T06:40:33.823Z,99958.88
2019-01-14T06:45:37.340Z,99952.40
2019-01-14T06:50:40.748Z,99952.41
2019-01-14T06:55:44.290Z,99955.87
2019-01-14T07:00:48.623Z,99959.31
2019-01-14T07:05:52.083Z,99949.41
2019-01-14T07:10:55.801Z,99955.05
2019-01-14T07:15:59.244Z,99964.07
2019-01-14T07:21:02.702Z,99982.59
2019-01-14T07:26:06.213Z,99985.20
2019-01-14T07:31:09.667Z,99990.78
2019-01-14T07:36:13.132Z,100014.91
2019-01-14T07:41:16.682Z,100019.19
2019-01-14T07:46:20.161Z,100031.27
2019-01-14T07:51:23.607Z,100046.75
2019-01-14T07:56:27.070Z,100057.95
2019-01-14T08:01:30.544Z,100075.17
2019-01-14T08:06:34.020Z,100087.23
2019-01-14T08:11:37.482Z,100098.40
2019-01-14T08:16:40.933Z,100077.69
2019-01-14T08:21:44.385Z,100098.75
2019-01-14T08:26:48.141Z,100101.35
2019-01-14T08:31:51.627Z,100119.41
2019-01-14T08:37:00.697Z,100129.34
2019-01-14T08:42:01.612Z,100139.22
2019-01-14T08:47:05.073Z,100158.16
2019-01-14T08:52:08.597Z,100161.56
2019-01-14T08:57:12.270Z,100162.41
2019-01-14T09:02:15.727Z,100167.62
2019-01-14T09:07:19.160Z,100181.39
2019-01-14T09:12:22.594Z,100187.88
2019-01-14T09:17:26.062Z,100184.43
2019-01-14T09:22:29.528Z,100189.59
2019-01-14T09:27:33.143Z,100212.83
2019-01-14T09:32:36.611Z,100203.85
2019-01-14T09:37:40.077Z,100227.09
2019-01-14T09:42:43.774Z,100223.73
2019-01-14T09:47:47.231Z,100216.36
2019-01-14T09:52:50.692Z,100217.67
2019-01-14T09:57:54.160Z,100230.71
2019-01-14T10:02:57.650Z,100245.33
2019-01-14T10:08:01.133Z,100246.63
2019-01-14T10:13:04.763Z,100258.69
2019-01-14T10:18:08.191Z,100253.58
2019-01-14T10:23:11.728Z,100255.77
2019-01-14T10:28:15.172Z,100270.45
2019-01-14T10:33:18.606Z,100267.80
2019-01-14T10:38:22.072Z,100271.74
2019-01-14T10:43:25.528Z,100279.52
2019-01-14T10:48:28.970Z,100272.63
2019-01-14T10:53:32.437Z,100279.11
2019-01-14T10:58:35.900Z,100286.88
2019-01-14T11:03:39.346Z,100280.39
2019-01-14T11:08:42.786Z,100289.89
2019-01-14T11:13:46.217Z,100301.13
2019-01-14T11:18:50.398Z,100298.54
2019-01-14T11:23:53.842Z,100286.45
2019-01-14T11:28:57.436Z,100310.10
2019-01-14T11:34:00.878Z,100316.55
2019-01-14T11:39:07.561Z,100313.16
2019-01-14T11:44:11.277Z,100308.83
2019-01-14T11:49:14.746Z,100313.53
2019-01-14T11:54:18.206Z,100319.94
2019-01-14T11:59:21.738Z,100314.87
2019-01-14T12:04:26.099Z,100336.39
2019-01-14T12:09:29.633Z,100339.85
2019-01-14T12:14:33.087Z,100339.01
2019-01-14T12:19:36.529Z,100346.79
2019-01-14T12:24:39.977Z,100343.74
2019-01-14T12:29:43.431Z,100343.75
2019-01-14T12:34:46.915Z,100342.47
2019-01-14T12:39:50.393Z,100358.88
2019-01-14T12:44:53.805Z,100372.30
2019-01-14T12:49:57.234Z,100372.27
2019-01-14T12:55:00.680Z,100383.44
2019-01-14T13:00:08.009Z,100399.33
2019-01-14T13:05:12.730Z,100386.72
2019-01-14T13:10:16.341Z,100387.45
2019-01-14T13:15:22.198Z,100401.62
2019-01-14T13:20:25.631Z,100415.80
2019-01-14T13:25:29.089Z,100413.47
2019-01-14T13:30:32.595Z,100425.53
2019-01-14T13:35:36.047Z,100421.13
2019-01-14T13:40:39.581Z,100418.64
2019-01-14T13:45:43.039Z,100425.19
2019-01-14T13:50:46.465Z,100423.33
2019-01-14T13:55:49.891Z,100430.22
2019-01-14T14:00:53.364Z,100423.76
2019-01-14T14:05:56.807Z,100447.77
2019-01-14T14:11:00.339Z,100458.95
2019-01-14T14:16:03.873Z,100467.98
2019-01-14T14:21:07.304Z,100476.97
2019-01-14T14:26:10.807Z,100484.82
2019-01-14T14:31:14.217Z,100492.58
2019-01-14T14:36:17.678Z,100508.11
2019-01-14T14:41:21.112Z,100507.31
2019-01-14T14:46:24.612Z,100503.06
2019-01-14T14:51:28.058Z,100504.30
2019-01-14T14:56:31.471Z,100527.11
2019-01-14T15:01:34.885Z,100537.41
2019-01-14T15:06:38.409Z,100548.16
2019-01-14T15:11:42.223Z,100544.28
2019-01-14T15:16:45.683Z,100557.55
2019-01-14T15:21:49.789Z,100555.47
2019-01-14T15:26:53.242Z,100564.08
2019-01-14T15:31:56.696Z,100569.25
2019-01-14T15:37:00.141Z,100578.73
2019-01-14T15:42:03.673Z,100578.34
2019-01-14T15:47:07.144Z,100602.39
2019-01-14T15:52:10.672Z,100613.07
2019-01-14T15:57:15.133Z,100624.25
2019-01-14T16:02:18.598Z,100631.46
2019-01-14T16:07:22.060Z,100633.94
2019-01-14T16:12:25.555Z,100649.85
2019-01-14T16:17:29.021Z,100644.98
2019-01-14T16:22:32.464Z,100647.13
2019-01-14T16:27:36.023Z,100657.94
2019-01-14T16:32:39.556Z,100666.49
2019-01-14T16:37:43.349Z,100673.94
2019-01-14T16:42:46.800Z,100682.04
2019-01-14T16:47:50.317Z,100690.48
2019-01-14T16:52:53.790Z,100693.66
2019-01-14T16:57:57.265Z,100680.17
2019-01-14T17:03:00.736Z,100679.30
2019-01-14T17:08:04.451Z,100700.46
2019-01-14T17:13:08.189Z,100701.78
2019-01-14T17:18:11.633Z,100701.77
2019-01-14T17:23:15.080Z,100708.23
2019-01-14T17:28:18.552Z,100724.66
2019-01-14T17:33:21.980Z,100724.66
2019-01-14T17:38:25.404Z,100734.89
2019-01-14T17:43:28.820Z,100732.31
2019-01-14T17:48:32.257Z,100751.23
2019-01-14T17:53:35.734Z,100753.02
2019-01-14T17:58:39.163Z,100759.83
2019-01-14T18:03:42.611Z,100767.56
2019-01-14T18:08:46.070Z,100773.05
2019-01-14T18:13:49.496Z,100787.72
2019-01-14T18:18:52.951Z,100794.92
2019-01-14T18:23:56.406Z,100802.74
2019-01-14T18:28:59.840Z,100806.11
2019-01-14T18:34:03.289Z,100806.19
2019-01-14T18:39:08.271Z,100814.72
2019-01-14T18:44:11.691Z,100809.11
2019-01-14T18:49:15.128Z,100818.11
2019-01-14T18:54:18.572Z,100824.61
2019-01-14T18:59:22.010Z,100836.21
2019-01-14T19:04:25.430Z,100846.09
2019-01-14T19:09:29.204Z,100845.53
2019-01-14T19:14:32.634Z,100854.91
2019-01-14T19:19:36.069Z,100854.51
2019-01-14T19:24:40.365Z,100872.09
2019-01-14T19:29:43.804Z,100857.48
2019-01-14T19:34:47.250Z,100870.75
2019-01-14T19:39:50.683Z,100890.52
2019-01-14T19:44:54.116Z,100887.99
2019-01-14T19:49:57.534Z,100894.80
2019-01-14T19:55:00.968Z,100902.46
2019-01-14T20:00:08.848Z,100906.27
2019-01-14T20:05:12.443Z,100913.14
2019-01-14T20:10:16.534Z,100920.45
2019-01-14T20:15:21.307Z,100925.56
2019-01-14T20:20:24.799Z,100927.33
2019-01-14T20:25:28.250Z,100945.30
2019-01-14T20:30:31.735Z,100952.60
2019-01-14T20:35:35.208Z,100960.02
2019-01-14T20:40:38.656Z,100959.47
2019-01-14T20:45:42.103Z,100955.63
2019-01-14T20:55:49.716Z,100948.39
2019-01-14T21:00:53.166Z,100945.19
2019-01-14T21:05:56.665Z,100949.55
2019-01-14T21:11:00.081Z,100951.19
2019-01-14T21:16:03.522Z,100954.66
2019-01-14T21:21:06.971Z,100959.37
2019-01-14T21:26:10.456Z,100961.95
2019-01-14T21:31:14.178Z,100955.83
2019-01-14T21:36:17.597Z,100961.97
2019-01-14T21:41:21.042Z,100960.98
2019-01-14T21:46:24.475Z,100954.39
2019-01-14T21:51:27.914Z,100968.27
2019-01-14T21:56:31.357Z,100969.20
2019-01-14T22:01:34.806Z,100967.71
2019-01-14T22:06:38.258Z,100971.31
2019-01-14T22:11:41.745Z,100971.66
2019-01-14T22:16:45.261Z,100978.47
2019-01-14T22:21:48.762Z,100983.09
2019-01-14T22:26:52.194Z,100988.51
2019-01-14T22:31:55.646Z,100992.69
2019-01-14T22:36:59.089Z,101002.41
2019-01-14T22:42:02.587Z,101001.95
2019-01-14T22:47:06.044Z,101004.81
2019-01-14T22:52:09.597Z,101014.02
2019-01-14T22:57:12.990Z,101008.50
2019-01-14T23:02:16.608Z,101014.46
2019-01-14T23:07:20.006Z,101006.67
2019-01-14T23:12:23.513Z,100996.82
2019-01-14T23:17:26.991Z,100999.73
2019-01-14T23:22:30.506Z,101000.51
2019-01-14T23:27:33.938Z,100991.22
2019-01-14T23:32:37.547Z,100998.50
2019-01-14T23:37:40.975Z,101011.13
2019-01-14T23:42:44.417Z,101010.78
2019-01-14T23:47:47.832Z,101013.72
2019-01-14T23:52:51.552Z,101021.14
2019-01-14T23:57:54.988Z,101025.43
